aviador You're here:

FAJB Decoded Metar

in _UNIDENTIFIED
Report Time2017-10-17 11:00:00
UTC Time2017-10-17 11:20:13
Flight Rules unknown UNKNOWN
Wind260° at 06 kt
W.Rank260° ranks 17
Current wind is above 260° avg. (2.5)
VisibilityN/A
Phenomena:N/A
Clouds:N/A
Expected CloudBase > 12,800 ft AGL from Temp-Dew spread
CeilingNone
Temp23°C (ISA +19)
Dew Point-9°C (11% RH)
AAT17.9°C
QNH1017 hPa
Density Alt7,372 ft
Elevation5,334 ft
Report Wrong Elevation
Raw Report
FAJB 171100Z AUTO 26006KT //// // ////// 23/M09 Q1017=

Extra information for FAJB:More info

Metar Taf Metar & Taf Last 4 Metars F.Rules Stats Wind Profile Meteogram Temp Stats Metar ALERT Operation Metar Decoded Social comments